createdAt,value
2023-04-28T00:00:27.538Z,0.35
2023-04-28T00:02:56.909Z,0.20
2023-04-28T00:05:26.050Z,0.28
2023-04-28T00:07:56.541Z,0.30
2023-04-28T00:10:25.696Z,1.45
2023-04-28T00:12:54.659Z,2.58
2023-04-28T00:15:23.875Z,0.50
2023-04-28T00:17:53.679Z,1.20
2023-04-28T00:20:22.942Z,0.20
2023-04-28T00:22:52.076Z,0.10
2023-04-28T00:25:22.454Z,0.40
2023-04-28T00:27:51.638Z,0.70
2023-04-28T00:30:21.051Z,0.85
2023-04-28T00:32:50.574Z,0.30
2023-04-28T00:35:19.855Z,0.30
2023-04-28T00:37:48.908Z,0.32
2023-04-28T00:40:18.221Z,0.10
2023-04-28T00:42:48.796Z,0.40
2023-04-28T00:45:17.857Z,0.20
2023-04-28T00:47:47.045Z,0.50
2023-04-28T00:50:17.950Z,0.20
2023-04-28T00:52:47.177Z,0.30
2023-04-28T00:55:17.437Z,2.08
2023-04-28T00:57:48.463Z,1.45
2023-04-28T01:00:18.230Z,0.40
2023-04-28T01:02:47.348Z,0.10
2023-04-28T01:05:16.824Z,0.25
2023-04-28T01:07:46.473Z,0.32
2023-04-28T01:10:15.614Z,0.10
2023-04-28T01:12:44.740Z,0.65
2023-04-28T01:15:18.289Z,0.40
2023-04-28T01:17:48.954Z,11.07
2023-04-28T01:20:18.405Z,0.82
2023-04-28T01:22:47.610Z,1.77
2023-04-28T01:25:18.818Z,0.77
2023-04-28T01:27:48.863Z,7.38
2023-04-28T01:30:17.991Z,0.60
2023-04-28T01:32:47.191Z,0.57
2023-04-28T01:35:16.496Z,0.38
2023-04-28T01:37:46.153Z,0.30
2023-04-28T01:40:15.530Z,1.25
2023-04-28T01:42:46.166Z,0.22
2023-04-28T01:45:15.554Z,0.75
2023-04-28T01:47:45.056Z,2.90
2023-04-28T01:50:15.307Z,0.30
2023-04-28T01:52:44.553Z,1.65
2023-04-28T01:55:13.551Z,2.80
2023-04-28T01:57:43.536Z,1.48
2023-04-28T02:00:18.246Z,0.20
2023-04-28T02:02:53.842Z,0.47
2023-04-28T02:05:22.987Z,0.10
2023-04-28T02:07:53.865Z,0.35
2023-04-28T02:10:23.021Z,0.10
2023-04-28T02:12:52.027Z,0.10
2023-04-28T02:15:23.925Z,4.85
2023-04-28T02:17:53.061Z,0.30
2023-04-28T02:20:22.333Z,0.20
2023-04-28T02:22:51.450Z,0.17
2023-04-28T02:25:21.307Z,0.77
2023-04-28T02:27:50.311Z,0.75
2023-04-28T02:30:19.510Z,1.42
2023-04-28T02:32:50.184Z,0.20
2023-04-28T02:35:19.570Z,0.45
2023-04-28T02:37:48.946Z,0.70
2023-04-28T02:40:18.097Z,0.30
2023-04-28T02:42:47.310Z,0.40
2023-04-28T02:45:16.573Z,0.30
2023-04-28T02:47:45.715Z,0.40
2023-04-28T02:50:16.363Z,0.20
2023-04-28T02:52:47.086Z,0.25
2023-04-28T02:55:24.357Z,0.13
2023-04-28T02:57:55.080Z,0.38
2023-04-28T03:00:24.424Z,0.20
2023-04-28T03:02:55.057Z,0.10
2023-04-28T03:05:25.930Z,0.30
2023-04-28T03:07:55.084Z,22.23
2023-04-28T03:10:24.617Z,0.25
2023-04-28T03:12:53.972Z,0.55
2023-04-28T03:15:23.062Z,0.10
2023-04-28T03:17:52.091Z,1.23
2023-04-28T03:20:21.323Z,0.10
2023-04-28T03:22:51.996Z,1.00
2023-04-28T03:25:21.549Z,0.10
2023-04-28T03:27:54.134Z,1.65
2023-04-28T03:30:24.546Z,0.98
2023-04-28T03:32:53.900Z,0.73
2023-04-28T03:35:23.202Z,0.70
2023-04-28T03:37:53.767Z,0.50
2023-04-28T03:40:23.260Z,12.88
2023-04-28T03:43:12.653Z,0.20
2023-04-28T03:46:03.049Z,0.30
2023-04-28T03:48:32.323Z,0.20
2023-04-28T03:51:01.533Z,0.30
2023-04-28T03:53:32.422Z,0.68
2023-04-28T03:56:01.697Z,0.30
2023-04-28T03:58:30.763Z,0.30
2023-04-28T04:01:01.195Z,0.22
2023-04-28T04:03:30.672Z,0.68
2023-04-28T04:06:00.612Z,2.17
2023-04-28T04:08:29.801Z,0.50
2023-04-28T04:11:00.388Z,0.35
2023-04-28T04:13:29.625Z,0.43
2023-04-28T04:15:58.947Z,0.17
2023-04-28T04:18:29.550Z,0.30
2023-04-28T04:21:12.103Z,4.47
2023-04-28T04:23:42.276Z,0.20
2023-04-28T04:26:12.958Z,0.30
2023-04-28T04:28:42.207Z,0.55
2023-04-28T04:31:12.694Z,0.32
2023-04-28T04:33:42.371Z,0.52
2023-04-28T04:36:12.248Z,0.50
2023-04-28T04:38:41.736Z,3.22
2023-04-28T04:41:18.689Z,1.90
2023-04-28T04:43:48.149Z,0.30
2023-04-28T04:46:20.519Z,0.65
2023-04-28T04:48:50.021Z,6.38
2023-04-28T04:51:19.554Z,6.57
2023-04-28T04:53:49.461Z,0.40
2023-04-28T04:56:20.338Z,3.42
2023-04-28T04:58:49.636Z,0.30
2023-04-28T05:01:39.091Z,0.10
2023-04-28T05:04:08.352Z,0.82
2023-04-28T05:06:38.522Z,1.75
2023-04-28T05:09:08.281Z,0.28
2023-04-28T05:11:39.160Z,0.45
2023-04-28T05:14:08.394Z,1.98
2023-04-28T05:16:37.705Z,0.95
2023-04-28T05:19:18.106Z,0.80
2023-04-28T05:21:48.585Z,1.95
2023-04-28T05:24:17.813Z,0.40
2023-04-28T05:26:48.748Z,4.30
2023-04-28T05:29:17.819Z,0.85
2023-04-28T05:31:46.927Z,1.27
2023-04-28T05:34:17.567Z,6.30
2023-04-28T05:36:47.160Z,0.82
2023-04-28T05:39:16.561Z,0.75
2023-04-28T05:41:45.644Z,0.38
2023-04-28T05:44:16.734Z,0.20
2023-04-28T05:46:48.419Z,0.20
2023-04-28T05:49:20.877Z,0.40
2023-04-28T05:51:50.078Z,1.00
2023-04-28T05:54:19.401Z,0.30
2023-04-28T05:56:51.947Z,0.32
2023-04-28T05:59:22.496Z,0.28
2023-04-28T06:01:52.268Z,0.40
2023-04-28T06:04:22.345Z,0.38
2023-04-28T06:06:52.820Z,0.73
2023-04-28T06:09:22.230Z,0.63
2023-04-28T06:11:51.322Z,0.40
2023-04-28T06:14:22.240Z,1.15
2023-04-28T06:16:52.406Z,0.40
2023-04-28T06:19:21.839Z,0.60
2023-04-28T06:21:52.946Z,0.25
2023-04-28T06:24:22.634Z,1.55
2023-04-28T06:26:55.616Z,0.40
2023-04-28T06:29:28.122Z,0.85
2023-04-28T06:31:58.072Z,0.40
2023-04-28T06:34:29.144Z,0.38
2023-04-28T06:37:00.368Z,0.10
2023-04-28T06:39:29.536Z,1.38
2023-04-28T06:41:58.733Z,0.45
2023-04-28T06:44:31.799Z,0.75
2023-04-28T06:47:01.960Z,0.38
2023-04-28T06:49:32.273Z,0.90
2023-04-28T06:52:03.055Z,0.20
2023-04-28T06:54:32.760Z,0.80
2023-04-28T06:57:02.411Z,0.35
2023-04-28T06:59:33.185Z,0.90
2023-04-28T07:02:02.503Z,0.10
2023-04-28T07:04:31.637Z,0.55
2023-04-28T07:07:00.772Z,1.60
2023-04-28T07:09:31.470Z,0.90
2023-04-28T07:12:00.937Z,0.57
2023-04-28T07:14:30.154Z,0.65
2023-04-28T07:17:01.938Z,0.38
2023-04-28T07:19:31.156Z,0.52
2023-04-28T07:22:00.288Z,0.63
2023-04-28T07:24:29.663Z,0.40
2023-04-28T07:26:58.988Z,0.20
2023-04-28T07:29:33.990Z,1.27
2023-04-28T07:32:06.843Z,0.40
2023-04-28T07:34:36.956Z,0.20
2023-04-28T07:37:07.064Z,0.20
2023-04-28T07:39:37.042Z,0.95
2023-04-28T07:42:06.317Z,0.20
2023-04-28T07:44:35.420Z,1.08
2023-04-28T07:47:06.242Z,0.40
2023-04-28T07:49:35.371Z,0.40
2023-04-28T07:52:04.583Z,0.20
2023-04-28T07:54:35.731Z,0.40
2023-04-28T07:57:06.523Z,0.98
2023-04-28T07:59:36.039Z,0.30
2023-04-28T08:02:06.985Z,0.57
2023-04-28T08:04:40.635Z,0.40
2023-04-28T08:07:10.913Z,0.32
2023-04-28T08:09:41.755Z,0.55
2023-04-28T08:12:11.250Z,0.20
2023-04-28T08:14:40.569Z,0.55
2023-04-28T08:17:11.208Z,0.30
2023-04-28T08:19:40.416Z,0.40
2023-04-28T08:22:09.679Z,0.43
2023-04-28T08:24:38.729Z,0.30
2023-04-28T08:27:08.512Z,0.40
2023-04-28T08:29:38.013Z,0.70
2023-04-28T08:32:07.338Z,0.60
2023-04-28T08:34:37.825Z,0.30
2023-04-28T08:37:07.909Z,0.68
2023-04-28T08:39:37.178Z,0.40
2023-04-28T08:42:06.711Z,0.47
2023-04-28T08:44:40.058Z,0.63
2023-04-28T08:47:14.638Z,0.40
2023-04-28T08:49:46.068Z,0.20
2023-04-28T08:52:19.085Z,0.65
2023-04-28T08:54:51.024Z,0.20
2023-04-28T08:57:22.303Z,0.35
2023-04-28T08:59:51.841Z,1.25
2023-04-28T09:02:21.870Z,2.60
2023-04-28T09:04:52.811Z,0.30
2023-04-28T09:07:23.484Z,0.47
2023-04-28T09:09:52.705Z,0.32
2023-04-28T09:12:24.409Z,0.35
2023-04-28T09:15:01.787Z,0.55
2023-04-28T09:17:32.561Z,0.30
2023-04-28T09:20:04.747Z,2.20
2023-04-28T09:22:35.570Z,0.30
2023-04-28T09:25:13.428Z,0.47
2023-04-28T09:27:42.738Z,1.15
2023-04-28T09:30:12.655Z,0.57
2023-04-28T09:32:41.985Z,0.55
2023-04-28T09:35:12.698Z,0.30
2023-04-28T09:37:43.616Z,0.90
2023-04-28T09:40:13.549Z,2.22
2023-04-28T09:42:43.886Z,0.30
2023-04-28T09:45:14.261Z,0.60
2023-04-28T09:47:44.781Z,0.30
2023-04-28T09:50:17.591Z,0.43
2023-04-28T09:55:20.635Z,0.30
2023-04-28T09:57:51.354Z,0.80
2023-04-28T10:00:21.837Z,0.52
2023-04-28T10:02:53.114Z,0.40
2023-04-28T10:05:25.877Z,1.00
2023-04-28T10:07:55.817Z,0.82
2023-04-28T10:10:27.510Z,0.20
2023-04-28T10:12:57.207Z,1.05
2023-04-28T10:15:26.334Z,0.60
2023-04-28T10:17:56.972Z,1.90
2023-04-28T10:20:28.897Z,0.93
2023-04-28T10:23:08.072Z,1.30
2023-04-28T10:25:39.382Z,0.60
2023-04-28T10:28:10.620Z,1.50
2023-04-28T10:30:39.918Z,0.45
2023-04-28T10:33:27.204Z,0.50
2023-04-28T10:35:58.098Z,0.30
2023-04-28T10:38:27.394Z,0.30
2023-04-28T10:41:01.319Z,0.30
2023-04-28T10:43:40.932Z,0.60
2023-04-28T10:46:12.090Z,0.47
2023-04-28T10:49:08.605Z,0.20
2023-04-28T10:51:39.125Z,0.30
2023-04-28T10:54:19.606Z,0.30
2023-04-28T10:57:23.090Z,0.20
2023-04-28T10:59:52.913Z,0.25
2023-04-28T11:02:44.804Z,0.50
2023-04-28T11:05:21.039Z,0.75
2023-04-28T11:08:30.292Z,0.25
2023-04-28T11:11:31.021Z,0.50
2023-04-28T11:14:33.544Z,0.40
2023-04-28T11:17:04.680Z,0.52
2023-04-28T11:19:35.360Z,0.45
2023-04-28T11:22:05.479Z,0.47
2023-04-28T11:24:34.889Z,0.65
2023-04-28T11:27:05.445Z,0.52
2023-04-28T11:29:36.233Z,0.57
2023-04-28T11:32:06.069Z,0.50
2023-04-28T11:34:35.963Z,0.30
2023-04-28T11:37:06.102Z,5.47
2023-04-28T11:39:36.172Z,2.45
2023-04-28T11:42:12.709Z,0.80
2023-04-28T11:44:41.911Z,0.60
2023-04-28T11:47:11.152Z,1.33
2023-04-28T11:49:47.227Z,0.52
2023-04-28T11:52:16.152Z,0.65
2023-04-28T11:54:45.149Z,6.43
2023-04-28T11:57:21.376Z,0.50
2023-04-28T11:59:51.375Z,1.55
2023-04-28T12:02:29.998Z,0.28
2023-04-28T12:05:08.102Z,0.30
2023-04-28T12:07:44.038Z,0.60
2023-04-28T12:10:16.184Z,2.92
2023-04-28T12:12:52.443Z,0.87
2023-04-28T12:15:25.004Z,2.80
2023-04-28T12:17:54.339Z,0.43
2023-04-28T12:20:37.037Z,0.35
2023-04-28T12:23:08.710Z,0.40
2023-04-28T12:25:45.889Z,2.47
2023-04-28T12:28:16.448Z,1.13
2023-04-28T12:30:45.836Z,0.95
2023-04-28T12:33:25.479Z,2.08
2023-04-28T12:35:55.535Z,0.47
2023-04-28T12:38:24.850Z,0.70
2023-04-28T12:40:54.116Z,4.88
2023-04-28T12:43:25.060Z,0.32
2023-04-28T12:45:55.904Z,0.60
2023-04-28T12:48:25.667Z,1.50
2023-04-28T12:50:54.912Z,0.30
2023-04-28T12:53:24.072Z,0.40
2023-04-28T12:55:53.499Z,0.50
2023-04-28T12:58:24.069Z,0.20
2023-04-28T13:00:53.578Z,0.88
2023-04-28T13:03:23.021Z,0.35
2023-04-28T13:05:55.147Z,8.60
2023-04-28T13:08:24.207Z,1.02
2023-04-28T13:10:53.395Z,0.30
2023-04-28T13:13:24.033Z,0.60
2023-04-28T13:15:53.243Z,3.50
2023-04-28T13:18:23.745Z,4.50
2023-04-28T13:20:53.018Z,0.30
2023-04-28T13:23:22.461Z,0.50
2023-04-28T13:25:52.323Z,0.50
2023-04-28T13:28:21.443Z,0.25
2023-04-28T13:30:52.409Z,0.20
2023-04-28T13:33:21.807Z,0.93
2023-04-28T13:35:51.416Z,1.88
2023-04-28T13:38:21.676Z,0.20
2023-04-28T13:40:50.934Z,2.20
2023-04-28T13:43:19.917Z,0.47
2023-04-28T13:45:49.384Z,0.30
2023-04-28T13:48:19.995Z,1.48
2023-04-28T13:50:49.233Z,0.40
2023-04-28T13:53:18.191Z,0.60
2023-04-28T13:55:49.960Z,1.10
2023-04-28T13:58:19.497Z,0.65
2023-04-28T14:00:48.608Z,0.40
2023-04-28T14:03:17.881Z,0.30
2023-04-28T14:05:49.983Z,0.63
2023-04-28T14:08:20.614Z,0.20
2023-04-28T14:10:50.902Z,0.85
2023-04-28T14:13:20.545Z,1.27
2023-04-28T14:15:58.645Z,0.30
2023-04-28T14:18:29.282Z,2.42
2023-04-28T14:20:59.909Z,0.40
2023-04-28T14:23:29.353Z,0.77
2023-04-28T14:25:58.515Z,0.50
2023-04-28T14:28:27.843Z,0.32
2023-04-28T14:30:57.064Z,0.35
2023-04-28T14:33:26.242Z,0.63
2023-04-28T14:35:55.461Z,0.25
2023-04-28T14:38:26.114Z,0.60
2023-04-28T14:40:55.266Z,1.45
2023-04-28T14:43:25.039Z,0.45
2023-04-28T14:45:54.739Z,0.40
2023-04-28T14:48:24.159Z,0.20
2023-04-28T14:50:53.358Z,2.72
2023-04-28T14:53:22.665Z,0.68
2023-04-28T14:55:54.609Z,0.32
2023-04-28T14:58:25.771Z,0.60
2023-04-28T15:00:55.050Z,0.35
2023-04-28T15:03:24.306Z,0.73
2023-04-28T15:05:54.781Z,12.18
2023-04-28T15:08:24.002Z,10.18
2023-04-28T15:10:54.554Z,0.30
2023-04-28T15:13:25.396Z,0.55
2023-04-28T15:15:54.651Z,0.55
2023-04-28T15:18:25.190Z,0.38
2023-04-28T15:20:54.362Z,0.22
2023-04-28T15:23:23.354Z,0.30
2023-04-28T15:25:54.318Z,0.32
2023-04-28T15:28:24.003Z,0.40
2023-04-28T15:30:53.518Z,1.25
2023-04-28T15:33:22.872Z,0.77
2023-04-28T15:35:52.185Z,0.70
2023-04-28T15:38:21.264Z,0.88
2023-04-28T15:40:50.407Z,0.77
2023-04-28T15:43:21.035Z,0.47
2023-04-28T15:45:50.343Z,0.40
2023-04-28T15:48:19.670Z,0.40
2023-04-28T15:50:48.749Z,1.40
2023-04-28T15:53:18.739Z,0.82
2023-04-28T15:55:48.011Z,1.38
2023-04-28T15:58:17.335Z,0.40
2023-04-28T16:00:48.804Z,0.75
2023-04-28T16:03:18.091Z,0.90
2023-04-28T16:05:48.116Z,0.20
2023-04-28T16:08:17.184Z,0.65
2023-04-28T16:10:46.580Z,0.20
2023-04-28T16:13:15.707Z,0.73
2023-04-28T16:15:46.119Z,3.05
2023-04-28T16:18:17.667Z,1.23
2023-04-28T16:20:46.920Z,0.50
2023-04-28T16:23:15.988Z,0.30
2023-04-28T16:25:45.306Z,2.83
2023-04-28T16:28:14.423Z,5.40
2023-04-28T16:30:45.190Z,0.40
2023-04-28T16:33:14.326Z,0.75
2023-04-28T16:35:45.289Z,0.52
2023-04-28T16:38:14.759Z,1.48
2023-04-28T16:40:43.899Z,1.98
2023-04-28T16:43:12.948Z,3.92
2023-04-28T16:45:42.453Z,13.32
2023-04-28T16:48:11.902Z,8.80
2023-04-28T16:50:41.351Z,11.43
2023-04-28T16:53:12.238Z,18.35
2023-04-28T16:55:41.305Z,15.20
2023-04-28T16:58:10.730Z,5.70
2023-04-28T17:00:39.824Z,11.75
2023-04-28T17:03:09.487Z,11.15
2023-04-28T17:05:38.891Z,19.83
2023-04-28T17:08:08.178Z,23.45
2023-04-28T17:10:40.209Z,15.93
2023-04-28T17:13:10.193Z,32.97
2023-04-28T17:15:40.232Z,26.63
2023-04-28T17:18:09.410Z,22.58
2023-04-28T17:20:38.677Z,33.45
2023-04-28T17:23:07.951Z,24.23
2023-04-28T17:25:40.665Z,24.50
2023-04-28T17:28:10.005Z,19.00
2023-04-28T17:30:40.785Z,10.82
2023-04-28T17:33:11.504Z,7.82
2023-04-28T17:35:40.799Z,5.72
2023-04-28T17:38:10.184Z,2.17
2023-04-28T17:40:40.862Z,11.30
2023-04-28T17:43:10.130Z,3.63
2023-04-28T17:45:39.303Z,1.10
2023-04-28T17:48:08.983Z,3.67
2023-04-28T17:50:38.238Z,8.70
2023-04-28T17:53:07.686Z,1.80
2023-04-28T17:55:37.009Z,1.33
2023-04-28T17:58:07.584Z,0.82
2023-04-28T18:00:37.112Z,2.03
2023-04-28T18:03:06.884Z,1.48
2023-04-28T18:05:36.383Z,0.68
2023-04-28T18:08:05.771Z,1.30
2023-04-28T18:10:35.753Z,1.38
2023-04-28T18:13:07.382Z,1.27
2023-04-28T18:15:36.952Z,0.73
2023-04-28T18:18:06.181Z,0.30
2023-04-28T18:20:35.284Z,0.47
2023-04-28T18:23:04.847Z,6.47
2023-04-28T18:25:34.123Z,4.97
2023-04-28T18:28:03.914Z,2.13
2023-04-28T18:30:39.664Z,0.98
2023-04-28T18:33:10.045Z,8.15
2023-04-28T18:35:39.512Z,1.15
2023-04-28T18:38:08.972Z,1.85
2023-04-28T18:40:40.041Z,2.30
2023-04-28T18:43:10.976Z,6.80
2023-04-28T18:45:43.384Z,0.60
2023-04-28T18:50:42.867Z,1.45
2023-04-28T18:53:12.756Z,1.65
2023-04-28T18:55:42.102Z,0.77
2023-04-28T18:58:12.018Z,2.30
2023-04-28T19:00:45.657Z,11.98
2023-04-28T19:03:15.882Z,4.53
2023-04-28T19:05:46.585Z,1.88
2023-04-28T19:08:16.998Z,0.35
2023-04-28T19:10:48.156Z,3.72
2023-04-28T19:13:17.899Z,1.17
2023-04-28T19:15:48.716Z,2.42
2023-04-28T19:18:17.843Z,9.52
2023-04-28T19:20:47.004Z,5.78
2023-04-28T19:23:16.415Z,28.65
2023-04-28T19:25:45.856Z,3.60
2023-04-28T19:28:16.134Z,4.30
2023-04-28T19:30:49.276Z,7.28
2023-04-28T19:33:18.446Z,4.32
2023-04-28T19:35:50.625Z,2.35
2023-04-28T19:38:23.378Z,4.63
2023-04-28T19:41:01.250Z,3.00
2023-04-28T19:43:31.056Z,1.67
2023-04-28T19:46:06.274Z,0.30
2023-04-28T19:48:35.600Z,3.33
2023-04-28T19:51:07.941Z,5.53
2023-04-28T19:53:41.487Z,2.15
2023-04-28T19:56:17.209Z,9.77
2023-04-28T19:58:46.405Z,9.50
2023-04-28T20:01:20.251Z,4.18
2023-04-28T20:03:52.549Z,3.22
2023-04-28T20:06:28.228Z,5.57
2023-04-28T20:08:57.680Z,12.80
2023-04-28T20:11:26.741Z,3.30
2023-04-28T20:13:56.024Z,9.48
2023-04-28T20:16:27.346Z,4.80
2023-04-28T20:18:56.559Z,3.15
2023-04-28T20:21:27.636Z,4.35
2023-04-28T20:23:56.903Z,2.80
2023-04-28T20:26:25.921Z,7.88
2023-04-28T20:28:57.343Z,3.60
2023-04-28T20:31:27.994Z,2.95
2023-04-28T20:33:57.700Z,2.03
2023-04-28T20:36:27.487Z,6.63
2023-04-28T20:38:56.936Z,1.80
2023-04-28T20:41:28.591Z,3.08
2023-04-28T20:43:57.762Z,9.57
2023-04-28T20:46:28.445Z,1.20
2023-04-28T20:48:57.655Z,1.15
2023-04-28T20:51:26.858Z,0.80
2023-04-28T20:53:56.483Z,0.40
2023-04-28T20:56:25.606Z,0.40
2023-04-28T20:58:54.853Z,0.75
2023-04-28T21:01:24.071Z,0.45
2023-04-28T21:03:54.889Z,1.38
2023-04-28T21:06:24.235Z,0.60
2023-04-28T21:08:53.505Z,0.50
2023-04-28T21:11:22.485Z,3.30
2023-04-28T21:13:51.650Z,1.10
2023-04-28T21:16:21.605Z,1.30
2023-04-28T21:18:51.863Z,0.55
2023-04-28T21:21:22.351Z,1.02
2023-04-28T21:23:51.575Z,0.85
2023-04-28T21:26:22.077Z,2.20
2023-04-28T21:28:51.308Z,0.63
2023-04-28T21:31:20.291Z,3.30
2023-04-28T21:33:50.180Z,1.33
2023-04-28T21:36:19.742Z,0.73
2023-04-28T21:38:50.297Z,3.65
2023-04-28T21:41:19.311Z,0.63
2023-04-28T21:43:48.572Z,0.28
2023-04-28T21:46:19.137Z,1.80
2023-04-28T21:48:48.589Z,1.15
2023-04-28T21:51:17.979Z,2.67
2023-04-28T21:53:48.050Z,0.90
2023-04-28T21:56:18.812Z,2.53
2023-04-28T21:58:47.896Z,0.63
2023-04-28T22:01:18.386Z,1.75
2023-04-28T22:03:48.901Z,0.98
2023-04-28T22:06:21.806Z,1.58
2023-04-28T22:08:53.197Z,0.70
2023-04-28T22:11:23.735Z,0.93
2023-04-28T22:13:52.789Z,4.15
2023-04-28T22:16:22.029Z,0.40
2023-04-28T22:18:51.233Z,1.05
2023-04-28T22:21:20.518Z,0.65
2023-04-28T22:23:49.499Z,1.85
2023-04-28T22:26:32.116Z,0.47
2023-04-28T22:29:02.400Z,10.02
2023-04-28T22:31:31.788Z,0.10
2023-04-28T22:34:02.229Z,0.63
2023-04-28T22:36:31.325Z,0.80
2023-04-28T22:39:00.537Z,0.55
2023-04-28T22:41:29.712Z,2.72
2023-04-28T22:44:00.371Z,0.40
2023-04-28T22:46:30.287Z,0.10
2023-04-28T22:48:59.324Z,0.43
2023-04-28T22:51:28.548Z,1.17
2023-04-28T22:53:57.684Z,0.55
2023-04-28T22:56:26.838Z,0.40
2023-04-28T22:58:56.404Z,0.80
2023-04-28T23:01:27.374Z,0.25
2023-04-28T23:03:56.648Z,0.20
2023-04-28T23:06:29.063Z,3.63
2023-04-28T23:08:58.512Z,0.30
2023-04-28T23:11:27.675Z,4.30
2023-04-28T23:13:57.091Z,2.83
2023-04-28T23:16:27.730Z,0.98
2023-04-28T23:18:56.940Z,0.40
2023-04-28T23:21:26.530Z,0.57
2023-04-28T23:23:55.674Z,0.30
2023-04-28T23:26:24.957Z,0.30
2023-04-28T23:28:54.128Z,0.20
2023-04-28T23:31:23.284Z,1.27
2023-04-28T23:33:53.901Z,0.10
2023-04-28T23:36:23.002Z,0.63
2023-04-28T23:38:52.053Z,0.65
2023-04-28T23:41:21.098Z,0.32
2023-04-28T23:43:50.182Z,1.27
2023-04-28T23:46:19.805Z,0.55
2023-04-28T23:48:49.325Z,1.45
2023-04-28T23:51:22.844Z,0.60
2023-04-28T23:53:52.525Z,0.25
2023-04-28T23:56:21.624Z,0.20
2023-04-28T23:58:51.366Z,0.77
